Zero Trim — WCY3091 — position and weather

sailwx.info

Track history (hours):
 
Tides and Currents Weather Stations Pressure Air Temp Water Temp Dewpoint Dewpoint Depression Visibility Wind Speed Wind Dir Waves Ship Positions

Zero Trim

Owner: TRIMBLE, ROBERT M, BELLEVUE, WA. More information available from US FCC via Universal Licensing System and Coast Guard Vessel Documentation Center.

Last reported at 2016-Aug-22 23:33 UTC. Time now 2016-Aug-27 08:12 UTC.
Position N 47°39' W 122°16'.

Length 23 m.

Type: Pleasure craft. MMSI: 366747760.

Date/timePositionNaut miles runAvg speedWind from/ knotsBaromVisibWave heightAir tempDewpointWater temp
2016-Aug-22 23:33N 47°39' W 122°16'5 5.3
2016-Aug-22 22:32N 47°40' W 122°24'1 1.0
2016-Aug-22 21:33N 47°41' W 122°25'1110.9
2016-Aug-22 20:33N 47°51' W 122°23'2311.2
2016-Aug-22 18:31N 48°13' W 122°33'15 7.4
2016-Aug-22 16:33N 48°28' W 122°31'5 4.3
2016-Aug-22 15:28N 48°31' W 122°36'0 0.0
2016-Aug-22 14:30N 48°31' W 122°36'0 0.1
2016-Aug-22 13:31N 48°31' W 122°36'0 0.0
2016-Aug-22 12:31N 48°31' W 122°36'0 0.0
2016-Aug-22 11:29N 48°31' W 122°36'0 0.0
2016-Aug-22 10:29N 48°31' W 122°36'0 0.0
2016-Aug-22 09:32N 48°31' W 122°36'0 0.0
2016-Aug-22 08:32N 48°31' W 122°36'0 0.0
2016-Aug-22 07:26N 48°31' W 122°36'0 0.0
2016-Aug-22 06:32N 48°31' W 122°36'0 0.0
2016-Aug-22 05:20N 48°31' W 122°36'0 0.0
2016-Aug-22 04:32N 48°31' W 122°36'0 0.0
2016-Aug-22 03:32N 48°31' W 122°36'0 0.0
2016-Aug-22 02:32N 48°31' W 122°36'0 0.0
2016-Aug-22 01:32N 48°31' W 122°36'0 0.0
2016-Aug-22 00:32N 48°31' W 122°36'0 0.0
2016-Aug-21 23:32N 48°31' W 122°36'0 0.0
2016-Aug-21 22:32N 48°31' W 122°36'0 0.0
2016-Aug-21 21:32N 48°31' W 122°36'0 0.0
2016-Aug-21 20:32N 48°31' W 122°36'1 0.7
2016-Aug-21 19:33N 48°31' W 122°36'10 9.8
2016-Aug-21 18:33N 48°33' W 122°51'32 6.2
2016-Aug-21 13:26N 48°51' W 123°30'0 0.0
2016-Aug-21 10:18N 48°51' W 123°30'0 0.0
2016-Aug-21 07:30N 48°51' W 123°30'0 0.0
2016-Aug-21 06:32N 48°51' W 123°30'0 0.0
2016-Aug-21 05:23N 48°51' W 123°30'0 0.0
2016-Aug-21 04:30N 48°51' W 123°30'0 0.0
2016-Aug-20 23:06N 48°51' W 123°30'0 0.0
2016-Aug-20 20:27N 48°51' W 123°30'0 0.0
2016-Aug-20 18:33N 48°51' W 123°30'0 0.0
2016-Aug-20 04:21N 48°51' W 123°30'12 1.1
2016-Aug-19 17:29N 48°41' W 123°21'2 0.1
2016-Aug-18 23:12N 48°39' W 123°24'0 0.0
2016-Aug-17 23:31N 48°39' W 123°24'20 6.1
2016-Aug-17 20:15N 48°35' W 122°54'7 9.5
2016-Aug-17 19:31N 48°32' W 122°45'6 5.8
2016-Aug-17 18:32N 48°31' W 122°36'0 0.0
2016-Aug-17 17:29N 48°31' W 122°36'0 0.0
2016-Aug-17 16:29N 48°31' W 122°36'0 0.0
2016-Aug-17 15:29N 48°31' W 122°36'0 0.0
2016-Aug-17 14:29N 48°31' W 122°36'0 0.0
2016-Aug-17 13:29N 48°31' W 122°36'0 0.0
2016-Aug-17 12:33N 48°31' W 122°36'0 0.0
2016-Aug-17 11:33N 48°31' W 122°36'0 0.0
2016-Aug-17 10:30N 48°31' W 122°36'0 0.0
2016-Aug-17 09:30N 48°31' W 122°36'0 0.0
2016-Aug-17 08:30N 48°31' W 122°36'0 0.0
2016-Aug-17 07:32N 48°31' W 122°36'0 0.0
2016-Aug-17 06:14N 48°31' W 122°36'0 0.0
2016-Aug-17 05:32N 48°31' W 122°36'0 0.0
2016-Aug-17 04:26N 48°31' W 122°36'0 0.0
2016-Aug-17 03:32N 48°31' W 122°36'0 0.0
2016-Aug-17 02:30N 48°31' W 122°36'0 0.0
2016-Aug-17 01:20N 48°31' W 122°36'0 0.0
2016-Aug-17 00:32N 48°31' W 122°36'0 0.0
2016-Aug-16 15:21N 48°31' W 122°36'0 0.0
2016-Aug-16 09:12N 48°31' W 122°36'0 0.0
2016-Aug-16 07:30N 48°31' W 122°36'0 0.0
2016-Aug-16 04:27N 48°31' W 122°36'5 0.2
2016-Aug-14 19:33N 48°32' W 122°44'10 9.2
2016-Aug-14 18:29N 48°36' W 122°57'9 8.0
2016-Aug-14 17:25N 48°37' W 123°10'1 0.0
2016-Aug-13 21:34N 48°37' W 123°09'  
Track history (hours):
 
Tides and Currents Weather Stations Pressure Air Temp Water Temp Dewpoint Dewpoint Depression Visibility Wind Speed Wind Dir Waves Ship Positions

Zero Trim

Owner: TRIMBLE, ROBERT M, BELLEVUE, WA. More information available from US FCC via Universal Licensing System and Coast Guard Vessel Documentation Center.

Last reported at 2016-Aug-22 23:33 UTC. Time now 2016-Aug-27 08:12 UTC.
Position N 47°39' W 122°16'.

Length 23 m.

Type: Pleasure craft. MMSI: 366747760.

Date/timePositionNaut miles runAvg speedWind from/ knotsBaromVisibWave heightAir tempDewpointWater temp
2016-Aug-22 23:33N 47°39' W 122°16'5 5.3
2016-Aug-22 22:32N 47°40' W 122°24'1 1.0
2016-Aug-22 21:33N 47°41' W 122°25'1110.9
2016-Aug-22 20:33N 47°51' W 122°23'2311.2
2016-Aug-22 18:31N 48°13' W 122°33'15 7.4
2016-Aug-22 16:33N 48°28' W 122°31'5 4.3
2016-Aug-22 15:28N 48°31' W 122°36'0 0.0
2016-Aug-22 14:30N 48°31' W 122°36'0 0.1
2016-Aug-22 13:31N 48°31' W 122°36'0 0.0
2016-Aug-22 12:31N 48°31' W 122°36'0 0.0
2016-Aug-22 11:29N 48°31' W 122°36'0 0.0
2016-Aug-22 10:29N 48°31' W 122°36'0 0.0
2016-Aug-22 09:32N 48°31' W 122°36'0 0.0
2016-Aug-22 08:32N 48°31' W 122°36'0 0.0
2016-Aug-22 07:26N 48°31' W 122°36'0 0.0
2016-Aug-22 06:32N 48°31' W 122°36'0 0.0
2016-Aug-22 05:20N 48°31' W 122°36'0 0.0
2016-Aug-22 04:32N 48°31' W 122°36'0 0.0
2016-Aug-22 03:32N 48°31' W 122°36'0 0.0
2016-Aug-22 02:32N 48°31' W 122°36'0 0.0
2016-Aug-22 01:32N 48°31' W 122°36'0 0.0
2016-Aug-22 00:32N 48°31' W 122°36'0 0.0
2016-Aug-21 23:32N 48°31' W 122°36'0 0.0
2016-Aug-21 22:32N 48°31' W 122°36'0 0.0
2016-Aug-21 21:32N 48°31' W 122°36'0 0.0
2016-Aug-21 20:32N 48°31' W 122°36'1 0.7
2016-Aug-21 19:33N 48°31' W 122°36'10 9.8
2016-Aug-21 18:33N 48°33' W 122°51'32 6.2
2016-Aug-21 13:26N 48°51' W 123°30'0 0.0
2016-Aug-21 10:18N 48°51' W 123°30'0 0.0
2016-Aug-21 07:30N 48°51' W 123°30'0 0.0
2016-Aug-21 06:32N 48°51' W 123°30'0 0.0
2016-Aug-21 05:23N 48°51' W 123°30'0 0.0
2016-Aug-21 04:30N 48°51' W 123°30'0 0.0
2016-Aug-20 23:06N 48°51' W 123°30'0 0.0
2016-Aug-20 20:27N 48°51' W 123°30'0 0.0
2016-Aug-20 18:33N 48°51' W 123°30'0 0.0
2016-Aug-20 04:21N 48°51' W 123°30'12 1.1
2016-Aug-19 17:29N 48°41' W 123°21'2 0.1
2016-Aug-18 23:12N 48°39' W 123°24'0 0.0
2016-Aug-17 23:31N 48°39' W 123°24'20 6.1
2016-Aug-17 20:15N 48°35' W 122°54'7 9.5
2016-Aug-17 19:31N 48°32' W 122°45'6 5.8
2016-Aug-17 18:32N 48°31' W 122°36'0 0.0
2016-Aug-17 17:29N 48°31' W 122°36'0 0.0
2016-Aug-17 16:29N 48°31' W 122°36'0 0.0
2016-Aug-17 15:29N 48°31' W 122°36'0 0.0
2016-Aug-17 14:29N 48°31' W 122°36'0 0.0
2016-Aug-17 13:29N 48°31' W 122°36'0 0.0
2016-Aug-17 12:33N 48°31' W 122°36'0 0.0
2016-Aug-17 11:33N 48°31' W 122°36'0 0.0
2016-Aug-17 10:30N 48°31' W 122°36'0 0.0
2016-Aug-17 09:30N 48°31' W 122°36'0 0.0
2016-Aug-17 08:30N 48°31' W 122°36'0 0.0
2016-Aug-17 07:32N 48°31' W 122°36'0 0.0
2016-Aug-17 06:14N 48°31' W 122°36'0 0.0
2016-Aug-17 05:32N 48°31' W 122°36'0 0.0
2016-Aug-17 04:26N 48°31' W 122°36'0 0.0
2016-Aug-17 03:32N 48°31' W 122°36'0 0.0
2016-Aug-17 02:30N 48°31' W 122°36'0 0.0
2016-Aug-17 01:20N 48°31' W 122°36'0 0.0
2016-Aug-17 00:32N 48°31' W 122°36'0 0.0
2016-Aug-16 15:21N 48°31' W 122°36'0 0.0
2016-Aug-16 09:12N 48°31' W 122°36'0 0.0
2016-Aug-16 07:30N 48°31' W 122°36'0 0.0
2016-Aug-16 04:27N 48°31' W 122°36'5 0.2
2016-Aug-14 19:33N 48°32' W 122°44'10 9.2
2016-Aug-14 18:29N 48°36' W 122°57'9 8.0
2016-Aug-14 17:25N 48°37' W 123°10'1 0.0
2016-Aug-13 21:34N 48°37' W 123°09'  

Dump ship's entire track history